Time;durP1;ratioP1;P1;durP2;ratioP2;P2;SDS_P1;SDS_P2;PMS_P1;PMS_P2;Temp;Humidity;BMP_temperature;BMP_pressure;BME280_temperature;BME280_humidity;BME280_pressure;Samples;Min_cycle;Max_cycle;Signal;HPM_P1;HPM_P2
2022/09/05 00:01:54;;;;;;;2.80;2.43;;;17.50;99.90;;;;;;4993353;28;20414;-75
2022/09/05 00:04:50;;;;;;;4.73;3.10;;;17.40;99.90;;;;;;4993924;28;20435;-74
2022/09/05 00:07:45;;;;;;;2.87;2.40;;;17.40;99.90;;;;;;4993602;28;20473;-76
2022/09/05 00:10:26;;;;;;;5.27;3.00;;;17.40;99.90;;;;;;4997301;28;20390;-75
2022/09/05 00:12:56;;;;;;;3.70;3.10;;;17.40;99.90;;;;;;4997514;28;20438;-75
2022/09/05 00:15:59;;;;;;;4.70;3.23;;;17.40;99.90;;;;;;4997636;28;20393;-76
2022/09/05 00:18:45;;;;;;;3.50;3.20;;;17.40;99.90;;;;;;4997576;28;20407;-75
2022/09/05 00:21:17;;;;;;;3.27;2.80;;;17.50;99.90;;;;;;4995678;28;20861;-77
2022/09/05 00:23:50;;;;;;;3.53;3.07;;;17.50;99.90;;;;;;4997530;28;20414;-75
2022/09/05 00:26:53;;;;;;;6.13;3.13;;;17.50;99.90;;;;;;4997627;28;20378;-76
2022/09/05 00:29:22;;;;;;;3.93;3.10;;;17.40;99.90;;;;;;4985493;28;20937;-76
2022/09/05 00:31:53;;;;;;;6.57;3.57;;;17.40;99.90;;;;;;4995611;28;20432;-76
2022/09/05 00:34:53;;;;;;;5.63;3.40;;;17.30;99.90;;;;;;4997380;28;20392;-76
2022/09/05 00:37:41;;;;;;;3.57;3.07;;;17.40;99.90;;;;;;4997303;28;20419;-75
2022/09/05 00:40:25;;;;;;;4.27;3.03;;;17.30;99.90;;;;;;4996841;28;20427;-75
2022/09/05 00:43:15;;;;;;;4.77;3.77;;;17.30;99.90;;;;;;4997184;28;20447;-75
2022/09/05 00:45:53;;;;;;;3.50;3.20;;;17.10;99.90;;;;;;4996986;28;20411;-74
2022/09/05 00:48:35;;;;;;;3.40;2.90;;;17.00;99.90;;;;;;4995836;28;20466;-76
2022/09/05 00:51:10;;;;;;;4.00;3.23;;;16.90;99.90;;;;;;4996585;28;20823;-74
2022/09/05 00:54:06;;;;;;;3.37;3.07;;;16.90;99.90;;;;;;4996790;28;20393;-75
2022/09/05 00:56:56;;;;;;;5.03;3.47;;;16.90;99.90;;;;;;4978398;28;20427;-76
2022/09/05 00:59:39;;;;;;;3.27;2.97;;;17.00;99.90;;;;;;4996650;28;20430;-76
2022/09/05 01:02:47;;;;;;;4.80;2.90;;;17.00;99.90;;;;;;4996479;28;20435;-73
2022/09/05 01:05:45;;;;;;;4.23;2.90;;;17.10;99.90;;;;;;4991632;28;20406;-75
2022/09/05 01:08:45;;;;;;;3.33;3.00;;;17.00;99.90;;;;;;4991601;28;20954;-75
2022/09/05 01:11:45;;;;;;;3.70;2.90;;;16.90;99.90;;;;;;4994995;28;20438;-75
2022/09/05 01:14:29;;;;;;;3.80;2.87;;;17.00;99.90;;;;;;4996594;28;20453;-75
2022/09/05 01:17:17;;;;;;;3.40;3.10;;;17.00;99.90;;;;;;4996536;28;20781;-74
2022/09/05 01:19:56;;;;;;;3.97;3.57;;;17.10;99.90;;;;;;4995485;28;20406;-77
2022/09/05 01:22:45;;;;;;;4.10;3.00;;;17.00;99.90;;;;;;4996500;28;20817;-75
2022/09/05 01:25:32;;;;;;;2.87;2.67;;;17.00;99.90;;;;;;4996431;28;20412;-74
2022/09/05 01:28:13;;;;;;;2.70;2.50;;;17.00;99.90;;;;;;4996360;28;20490;-76
2022/09/05 01:30:49;;;;;;;2.77;2.57;;;17.00;99.90;;;;;;4995978;28;20853;-75
2022/09/05 01:33:36;;;;;;;3.67;2.83;;;17.00;99.90;;;;;;4996366;28;20415;-77
2022/09/05 01:36:39;;;;;;;4.80;3.10;;;17.00;99.90;;;;;;4996242;28;20418;-74
2022/09/05 01:39:10;;;;;;;3.13;2.80;;;17.00;99.90;;;;;;4996135;28;20487;-76
2022/09/05 01:41:35;;;;;;;3.70;2.77;;;17.00;99.90;;;;;;4994372;28;20800;-77
2022/09/05 01:44:12;;;;;;;3.07;2.77;;;17.00;99.90;;;;;;4995933;28;20394;-75
2022/09/05 01:46:52;;;;;;;3.33;3.03;;;17.00;99.90;;;;;;4996233;28;20203;-75
2022/09/05 01:49:28;;;;;;;4.10;2.90;;;17.00;99.90;;;;;;4995873;28;20815;-73
2022/09/05 01:52:16;;;;;;;3.20;2.93;;;17.00;99.90;;;;;;4995379;28;20442;-75
2022/09/05 01:54:41;;;;;;;4.70;2.50;;;17.00;99.90;;;;;;4995705;28;20935;-75
2022/09/05 01:57:34;;;;;;;3.30;2.60;;;17.10;99.90;;;;;;4995672;28;20419;-75
2022/09/05 01:59:59;;;;;;;2.77;2.57;;;17.10;99.90;;;;;;4993587;28;20212;-76
2022/09/05 02:03:02;;;;;;;3.43;3.13;;;17.00;99.90;;;;;;4995587;28;20886;-74
2022/09/05 02:05:47;;;;;;;3.60;2.20;;;17.00;99.90;;;;;;4995600;28;20303;-76
2022/09/05 02:08:37;;;;;;;2.97;2.67;;;17.00;99.90;;;;;;4995304;28;20551;-75
2022/09/05 02:11:08;;;;;;;4.17;2.50;;;16.90;99.90;;;;;;4995160;28;20932;-77
2022/09/05 02:13:33;;;;;;;5.77;3.00;;;16.90;99.90;;;;;;4994359;28;20424;-74
2022/09/05 02:16:12;;;;;;;3.53;2.83;;;16.90;99.90;;;;;;4993945;28;20473;-75
2022/09/05 02:18:56;;;;;;;4.07;3.40;;;16.80;99.90;;;;;;4994227;28;20237;-76
2022/09/05 02:21:56;;;;;;;2.90;2.70;;;16.80;99.90;;;;;;4995163;28;20497;-76
2022/09/05 02:25:06;;;;;;;3.30;2.30;;;16.70;99.90;;;;;;4993652;28;20424;-75
2022/09/05 02:27:53;;;;;;;4.50;3.10;;;16.70;99.90;;;;;;4973819;28;20427;-76
2022/09/05 02:30:22;;;;;;;3.50;2.50;;;16.60;99.90;;;;;;4995197;28;20423;-75
2022/09/05 02:33:04;;;;;;;3.40;2.67;;;16.60;99.90;;;;;;4993890;28;20787;-76
2022/09/05 02:36:10;;;;;;;2.80;2.60;;;16.60;99.90;;;;;;4995259;28;20403;-74
2022/09/05 02:38:58;;;;;;;3.93;3.53;;;16.60;99.90;;;;;;4994872;28;20398;-74
2022/09/05 02:42:03;;;;;;;2.97;2.63;;;16.60;99.90;;;;;;4994792;28;20775;-76
2022/09/05 02:44:45;;;;;;;2.40;2.20;;;16.50;99.90;;;;;;4984330;28;20510;-77
2022/09/05 02:47:23;;;;;;;3.50;2.80;;;16.40;99.90;;;;;;4995000;28;20507;-76
2022/09/05 02:50:20;;;;;;;3.00;2.50;;;16.40;99.90;;;;;;4994477;28;21021;-75
2022/09/05 02:52:47;;;;;;;3.67;3.30;;;16.40;99.90;;;;;;4994856;28;20846;-76
2022/09/05 02:55:54;;;;;;;3.67;3.20;;;16.30;99.90;;;;;;4993488;28;20928;-77
2022/09/05 02:58:46;;;;;;;2.67;2.47;;;16.30;99.90;;;;;;4994707;28;20430;-76
2022/09/05 03:01:41;;;;;;;3.40;2.60;;;16.20;99.90;;;;;;4993021;28;20487;-75
2022/09/05 03:04:32;;;;;;;3.70;3.03;;;16.20;99.90;;;;;;4993265;28;20409;-76
2022/09/05 03:07:32;;;;;;;3.60;3.30;;;16.20;99.90;;;;;;4994703;28;20411;-75
2022/09/05 03:10:20;;;;;;;3.10;2.80;;;16.20;99.90;;;;;;4994077;28;20459;-75
2022/09/05 03:13:23;;;;;;;3.60;2.90;;;16.10;99.90;;;;;;4994528;28;20414;-74
2022/09/05 03:16:25;;;;;;;6.13;2.90;;;16.10;99.90;;;;;;4993105;28;20431;-73
2022/09/05 03:19:03;;;;;;;4.87;2.77;;;16.00;99.90;;;;;;4994325;28;20411;-75
2022/09/05 03:21:40;;;;;;;6.63;3.03;;;16.00;99.90;;;;;;4993914;28;20414;-75
2022/09/05 03:24:42;;;;;;;4.30;2.50;;;15.90;99.90;;;;;;4994417;28;20440;-75
2022/09/05 03:27:37;;;;;;;5.80;3.27;;;15.90;99.90;;;;;;4992947;28;20435;-76
2022/09/05 03:30:26;;;;;;;8.90;2.70;;;15.90;99.90;;;;;;4985404;28;20466;-75
2022/09/05 03:33:06;;;;;;;3.57;2.70;;;15.80;99.90;;;;;;4994074;28;20390;-75
2022/09/05 03:35:51;;;;;;;3.47;3.00;;;15.80;99.90;;;;;;4994198;28;20464;-74
2022/09/05 03:38:38;;;;;;;3.37;3.07;;;15.70;99.90;;;;;;4993992;28;20387;-76
2022/09/05 03:41:04;;;;;;;3.17;2.73;;;15.70;99.90;;;;;;4993674;28;20476;-75
2022/09/05 03:43:50;;;;;;;3.07;2.87;;;15.70;99.90;;;;;;4993381;28;20411;-76
2022/09/05 03:46:28;;;;;;;5.67;3.10;;;15.70;99.90;;;;;;4994075;28;20215;-75
2022/09/05 03:49:05;;;;;;;2.90;2.70;;;15.60;99.90;;;;;;4993876;28;20441;-75
2022/09/05 03:52:07;;;;;;;3.27;2.97;;;15.60;99.90;;;;;;4993564;28;20924;-76
2022/09/05 03:54:51;;;;;;;3.63;2.60;;;15.60;99.90;;;;;;4991934;28;20446;-75
2022/09/05 03:57:34;;;;;;;5.47;2.90;;;15.60;99.90;;;;;;4993825;28;20420;-75
2022/09/05 04:00:21;;;;;;;4.20;3.30;;;15.50;99.90;;;;;;4992214;28;20417;-76
2022/09/05 04:03:22;;;;;;;4.70;3.00;;;15.50;99.90;;;;;;4993728;28;20445;-76
2022/09/05 04:06:06;;;;;;;3.13;2.70;;;15.40;99.90;;;;;;4989682;28;20466;-75
2022/09/05 04:08:46;;;;;;;3.07;2.77;;;15.40;99.90;;;;;;4993511;28;20542;-73
2022/09/05 04:11:24;;;;;;;3.10;2.80;;;15.40;99.90;;;;;;4992354;28;20429;-75
2022/09/05 04:13:49;;;;;;;3.70;2.93;;;15.30;99.90;;;;;;4992656;28;20415;-76
2022/09/05 04:16:25;;;;;;;3.37;3.07;;;15.30;99.90;;;;;;4993699;28;20441;-75
2022/09/05 04:19:27;;;;;;;4.20;3.40;;;15.30;99.90;;;;;;4993711;28;20211;-75
2022/09/05 04:22:17;;;;;;;3.90;3.33;;;15.20;99.90;;;;;;4985424;28;20454;-76
2022/09/05 04:25:08;;;;;;;3.53;3.23;;;15.20;99.90;;;;;;4993585;28;20422;-76
2022/09/05 04:28:08;;;;;;;4.97;3.57;;;15.20;99.90;;;;;;4972156;28;20414;-74
2022/09/05 04:30:34;;;;;;;4.60;3.30;;;15.20;99.90;;;;;;4991750;28;20456;-74
2022/09/05 04:33:18;;;;;;;4.10;3.00;;;15.20;99.90;;;;;;4993490;28;20924;-75
2022/09/05 04:35:51;;;;;;;3.43;3.13;;;15.20;99.90;;;;;;4993608;28;20180;-75
2022/09/05 04:38:38;;;;;;;4.67;3.00;;;15.10;99.90;;;;;;4993721;28;20896;-76
2022/09/05 04:41:15;;;;;;;3.97;3.57;;;15.00;99.90;;;;;;4991528;28;20562;-75
2022/09/05 04:44:03;;;;;;;4.00;3.23;;;15.00;99.90;;;;;;4993592;28;20407;-76
2022/09/05 04:47:00;;;;;;;5.20;3.27;;;15.00;99.90;;;;;;4993553;28;20574;-74
2022/09/05 04:50:02;;;;;;;3.77;2.90;;;15.00;99.90;;;;;;4988556;28;20533;-74
2022/09/05 04:52:53;;;;;;;5.50;3.43;;;15.00;99.90;;;;;;4991959;28;20405;-75
2022/09/05 04:55:27;;;;;;;4.00;3.67;;;15.00;99.90;;;;;;4995332;28;20409;-74
2022/09/05 04:57:58;;;;;;;5.67;3.40;;;14.90;99.90;;;;;;4996955;28;20903;-74
2022/09/05 05:00:50;;;;;;;5.10;4.37;;;14.90;99.90;;;;;;4996221;28;20406;-75
2022/09/05 05:03:21;;;;;;;5.03;3.90;;;14.90;99.90;;;;;;4996772;28;20452;-76
2022/09/05 05:05:46;;;;;;;5.83;4.10;;;14.90;99.90;;;;;;4996851;28;20755;-75
2022/09/05 05:08:18;;;;;;;4.63;3.83;;;14.90;99.90;;;;;;4996590;28;20425;-76
2022/09/05 05:11:09;;;;;;;4.63;3.93;;;14.90;99.90;;;;;;4996506;28;20196;-74
2022/09/05 05:13:44;;;;;;;6.70;4.90;;;14.90;99.90;;;;;;4995546;28;21134;-74
2022/09/05 05:16:18;;;;;;;6.70;4.63;;;14.90;99.90;;;;;;4995311;28;20492;-76
2022/09/05 05:18:52;;;;;;;5.50;3.83;;;14.90;99.90;;;;;;4996654;28;20423;-75
2022/09/05 05:21:21;;;;;;;5.03;3.70;;;15.00;99.90;;;;;;4996062;28;20862;-76
2022/09/05 05:23:54;;;;;;;11.47;4.77;;;15.00;99.90;;;;;;4996326;28;20442;-75
2022/09/05 05:26:47;;;;;;;7.90;4.50;;;14.90;99.90;;;;;;4996770;28;20411;-75
2022/09/05 05:29:28;;;;;;;6.60;5.00;;;14.90;99.90;;;;;;4996439;28;20450;-76
2022/09/05 05:31:57;;;;;;;5.00;4.50;;;15.00;99.90;;;;;;4995859;28;20438;-76
2022/09/05 05:34:33;;;;;;;6.60;4.60;;;15.00;99.90;;;;;;4996589;28;20401;-76
2022/09/05 05:37:13;;;;;;;9.67;5.00;;;15.10;99.90;;;;;;4996331;28;20788;-74
2022/09/05 05:39:59;;;;;;;5.73;4.97;;;15.20;99.90;;;;;;4996149;28;20988;-76
2022/09/05 05:42:25;;;;;;;7.07;5.30;;;15.20;99.90;;;;;;4994831;28;20410;-76
2022/09/05 05:44:57;;;;;;;8.20;5.33;;;15.20;99.90;;;;;;4995932;28;20398;-75
2022/09/05 05:47:39;;;;;;;9.10;5.10;;;15.20;99.90;;;;;;4995922;28;20180;-76
2022/09/05 05:50:35;;;;;;;7.57;5.00;;;15.30;99.90;;;;;;4995691;28;20422;-76
2022/09/05 05:53:35;;;;;;;7.33;5.60;;;15.30;99.90;;;;;;4993264;28;20426;-75
2022/09/05 05:56:45;;;;;;;5.77;4.63;;;15.30;99.90;;;;;;4984256;28;20409;-75
2022/09/05 05:59:49;;;;;;;10.07;5.53;;;15.40;99.90;;;;;;4995830;28;20797;-76
2022/09/05 06:02:24;;;;;;;8.93;5.40;;;15.40;99.90;;;;;;4957981;28;20525;-76
2022/09/05 06:05:20;;;;;;;8.50;5.60;;;15.50;99.90;;;;;;4974437;28;20411;-76
2022/09/05 06:08:03;;;;;;;9.73;5.77;;;15.70;99.90;;;;;;4988985;28;20390;-76
2022/09/05 06:11:06;;;;;;;7.50;5.50;;;15.90;99.90;;;;;;4995400;28;20533;-74
2022/09/05 06:13:43;;;;;;;9.10;6.20;;;16.00;99.90;;;;;;4995487;28;20398;-75
2022/09/05 06:16:27;;;;;;;14.97;6.80;;;16.10;99.90;;;;;;4995563;28;20975;-75
2022/09/05 06:19:33;;;;;;;18.10;6.53;;;16.20;99.90;;;;;;4995448;28;20457;-76
2022/09/05 06:22:17;;;;;;;13.57;7.17;;;16.40;99.90;;;;;;4994998;28;20653;-74
2022/09/05 06:25:04;;;;;;;17.93;9.53;;;16.50;99.90;;;;;;4995321;28;20961;-76
2022/09/05 06:27:35;;;;;;;12.83;7.90;;;16.60;99.90;;;;;;4995302;28;20948;-76
2022/09/05 06:30:14;;;;;;;8.37;6.77;;;16.70;99.90;;;;;;4994988;28;20870;-76
2022/09/05 06:32:52;;;;;;;10.13;7.40;;;16.80;99.90;;;;;;4995350;28;20763;-74
2022/09/05 06:35:52;;;;;;;12.30;7.60;;;17.00;99.90;;;;;;4994017;28;20510;-76
2022/09/05 06:38:26;;;;;;;9.43;6.77;;;17.20;99.90;;;;;;4995268;28;20422;-74
2022/09/05 06:40:57;;;;;;;16.37;7.50;;;17.40;99.90;;;;;;4994890;28;20526;-76
2022/09/05 06:43:41;;;;;;;9.43;7.03;;;17.50;99.90;;;;;;4993844;28;20442;-75
2022/09/05 06:46:34;;;;;;;12.67;7.03;;;17.70;99.90;;;;;;4994515;28;20411;-75
2022/09/05 06:49:13;;;;;;;13.13;7.00;;;17.80;99.90;;;;;;4991765;28;20830;-75
2022/09/05 06:51:44;;;;;;;10.53;7.43;;;18.00;99.90;;;;;;4993970;28;20777;-74
2022/09/05 06:54:27;;;;;;;11.77;7.77;;;18.00;99.90;;;;;;4994597;28;20434;-76
2022/09/05 06:57:09;;;;;;;13.73;7.87;;;18.10;99.90;;;;;;4994723;28;20416;-76
2022/09/05 07:00:11;;;;;;;14.37;8.17;;;18.30;99.90;;;;;;4994652;28;20408;-77
2022/09/05 07:02:44;;;;;;;13.53;7.10;;;18.40;99.90;;;;;;4994777;28;20752;-81
2022/09/05 07:05:37;;;;;;;17.80;7.07;;;18.60;99.90;;;;;;4995047;28;20403;-80
2022/09/05 07:08:19;;;;;;;8.83;7.00;;;18.80;99.90;;;;;;4994290;28;20545;-80
2022/09/05 07:11:24;;;;;;;13.63;7.97;;;18.90;99.90;;;;;;4994218;28;20405;-81
2022/09/05 07:14:13;;;;;;;8.73;6.20;;;19.10;99.90;;;;;;4994634;28;20819;-82
2022/09/05 07:17:09;;;;;;;8.77;4.73;;;19.20;99.90;;;;;;4994570;28;20494;-81
2022/09/05 07:19:48;;;;;;;8.20;5.07;;;19.40;99.90;;;;;;4990026;28;20442;-82
2022/09/05 07:22:35;;;;;;;9.83;4.90;;;19.50;99.90;;;;;;4992959;28;20467;-82
2022/09/05 07:25:06;;;;;;;4.13;3.73;;;19.70;99.90;;;;;;4994309;28;20749;-82
2022/09/05 07:27:34;;;;;;;4.43;3.60;;;19.80;99.90;;;;;;4994346;28;20415;-82
2022/09/05 07:30:01;;;;;;;4.73;3.80;;;19.90;99.90;;;;;;4993777;28;20533;-82
2022/09/05 07:32:30;;;;;;;7.20;3.60;;;20.10;99.90;;;;;;4994334;28;20774;-80
2022/09/05 07:35:00;;;;;;;4.77;3.37;;;20.20;99.90;;;;;;4994417;28;20426;-81
2022/09/05 07:37:37;;;;;;;4.70;3.47;;;20.40;99.90;;;;;;4994384;28;20435;-83
2022/09/05 07:40:08;;;;;;;6.50;3.20;;;20.60;99.90;;;;;;4992166;28;20415;-79
2022/09/05 07:43:06;;;;;;;6.13;3.60;;;20.60;99.90;;;;;;4994039;28;20455;-80
2022/09/05 07:45:36;;;;;;;2.90;2.43;;;20.80;99.90;;;;;;4993789;28;20489;-81
2022/09/05 07:48:03;;;;;;;4.50;3.13;;;21.00;99.90;;;;;;4993765;28;20418;-81
2022/09/05 07:50:32;;;;;;;4.37;2.93;;;21.00;99.90;;;;;;4993529;28;21019;-80
2022/09/05 07:53:03;;;;;;;4.50;3.23;;;21.20;99.90;;;;;;4993885;28;20477;-80
2022/09/05 07:55:33;;;;;;;4.17;2.67;;;21.30;99.90;;;;;;4992750;28;21005;-81
2022/09/05 07:58:05;;;;;;;2.53;2.33;;;21.40;99.90;;;;;;4993886;28;20627;-82
2022/09/05 08:00:31;;;;;;;3.10;2.90;;;21.70;99.90;;;;;;4993554;28;20436;-80
2022/09/05 08:02:59;;;;;;;2.80;2.53;;;21.90;99.90;;;;;;4993886;28;20421;-82
2022/09/05 08:05:33;;;;;;;3.00;2.40;;;22.10;99.90;;;;;;4994051;28;20981;-82
2022/09/05 08:08:04;;;;;;;4.07;2.70;;;22.20;99.90;;;;;;4993674;28;20419;-81
2022/09/05 08:10:35;;;;;;;2.00;1.80;;;22.20;99.90;;;;;;4992313;28;20475;-80
2022/09/05 08:13:06;;;;;;;5.17;2.50;;;22.30;99.90;;;;;;4993805;28;20411;-83
2022/09/05 08:15:32;;;;;;;2.50;2.30;;;22.40;99.90;;;;;;4993730;28;20399;-81
2022/09/05 08:18:17;;;;;;;3.37;2.30;;;22.50;99.90;;;;;;4993461;28;20886;-81
2022/09/05 08:20:51;;;;;;;8.93;2.90;;;22.50;99.90;;;;;;4991400;28;20434;-80
2022/09/05 08:23:37;;;;;;;4.30;2.60;;;22.70;99.90;;;;;;4993439;28;20768;-82
2022/09/05 08:26:22;;;;;;;5.33;2.40;;;22.80;99.90;;;;;;4991656;28;20441;-80
2022/09/05 08:29:07;;;;;;;4.20;2.37;;;23.20;99.90;;;;;;4993670;28;20455;-81
2022/09/05 08:31:51;;;;;;;3.20;2.17;;;23.60;99.90;;;;;;4997187;28;20431;-80
2022/09/05 08:34:38;;;;;;;4.53;2.10;;;24.20;99.90;;;;;;4997624;28;20766;-81
2022/09/05 08:37:05;;;;;;;3.43;2.20;;;24.60;99.90;;;;;;4997495;28;20445;-81
2022/09/05 08:39:32;;;;;;;4.17;2.00;;;25.10;99.90;;;;;;4997444;28;20422;-82
2022/09/05 08:42:36;;;;;;;3.70;2.30;;;25.30;99.90;;;;;;4997035;28;20459;-80
2022/09/05 08:45:46;;;;;;;3.03;1.50;;;25.90;99.90;;;;;;4956555;29;20428;-81
2022/09/05 08:48:53;;;;;;;2.20;1.70;;;26.60;99.90;;;;;;4995095;28;20550;-81
2022/09/05 08:51:44;;;;;;;3.87;1.80;;;27.10;99.90;;;;;;4996434;28;20462;-80
2022/09/05 08:54:42;;;;;;;4.73;2.10;;;27.80;99.90;;;;;;4995924;28;20478;-82
2022/09/05 08:57:20;;;;;;;2.80;2.07;;;28.40;99.90;;;;;;4994224;28;20458;-83
2022/09/05 08:59:56;;;;;;;2.10;1.53;;;28.90;99.90;;;;;;4995340;28;20939;-82
2022/09/05 09:02:45;;;;;;;4.33;1.90;;;28.90;99.90;;;;;;4995557;28;20828;-82
2022/09/05 09:05:25;;;;;;;4.10;1.77;;;29.50;99.90;;;;;;4996905;28;20831;-78
2022/09/05 09:08:02;;;;;;;2.83;1.70;;;29.60;99.90;;;;;;4996844;28;20480;-79
2022/09/05 09:10:54;;;;;;;4.50;1.60;;;29.50;99.90;;;;;;4996459;28;20426;-80
2022/09/05 09:13:51;;;;;;;2.90;1.60;;;29.50;99.90;;;;;;4996877;28;20413;-80
2022/09/05 09:16:34;;;;;;;4.30;1.87;;;29.60;99.90;;;;;;4996780;28;20406;-79
2022/09/05 09:19:10;;;;;;;2.93;1.73;;;30.10;99.90;;;;;;4996150;28;20423;-80
2022/09/05 09:21:51;;;;;;;1.70;1.50;;;30.70;99.90;;;;;;4998837;28;20446;-79
2022/09/05 09:24:46;;;;;;;6.63;1.50;;;30.60;97.30;;;;;;4996966;28;20506;-79
2022/09/05 09:27:23;;;;;;;6.50;1.90;;;30.40;97.70;;;;;;4996371;28;20497;-79
2022/09/05 09:29:52;;;;;;;3.60;2.00;;;31.00;96.90;;;;;;4995898;28;20612;-79
2022/09/05 09:32:23;;;;;;;5.13;1.83;;;30.70;95.20;;;;;;4996260;28;20959;-73
2022/09/05 09:35:00;;;;;;;1.40;1.30;;;31.00;94.60;;;;;;4996018;28;20407;-74
2022/09/05 09:37:39;;;;;;;2.60;1.80;;;30.80;92.20;;;;;;4994613;28;20413;-73
2022/09/05 09:40:42;;;;;;;3.43;1.70;;;31.30;91.20;;;;;;4995412;28;20505;-74
2022/09/05 09:43:26;;;;;;;3.60;2.07;;;32.10;89.20;;;;;;4995995;28;20406;-74
2022/09/05 09:46:23;;;;;;;3.17;1.90;;;32.50;81.20;;;;;;4996308;28;20426;-74
2022/09/05 09:49:06;;;;;;;2.20;1.40;;;32.80;79.90;;;;;;4992046;28;20469;-73
2022/09/05 09:51:52;;;;;;;2.87;1.63;;;32.10;73.10;;;;;;4995741;28;20438;-74
2022/09/05 09:54:55;;;;;;;1.70;1.60;;;32.30;74.40;;;;;;4995943;28;20426;-74
2022/09/05 09:58:02;;;;;;;2.10;1.53;;;32.50;73.20;;;;;;4995717;28;20843;-74
2022/09/05 10:00:50;;;;;;;2.70;1.50;;;32.00;72.70;;;;;;4994232;28;20438;-74
2022/09/05 10:03:41;;;;;;;2.80;1.90;;;32.90;73.30;;;;;;4995712;28;20410;-73
2022/09/05 10:06:13;;;;;;;4.17;1.30;;;34.00;68.00;;;;;;4995668;28;20518;-73
2022/09/05 10:09:20;;;;;;;3.23;1.60;;;34.40;64.20;;;;;;4994255;28;20829;-74
2022/09/05 10:11:49;;;;;;;1.63;1.30;;;34.90;63.40;;;;;;4995103;28;20442;-74
2022/09/05 10:14:33;;;;;;;2.60;1.77;;;34.40;60.20;;;;;;4995618;28;20465;-74
2022/09/05 10:17:10;;;;;;;1.63;1.30;;;34.70;58.20;;;;;;4995504;28;20911;-73
2022/09/05 10:20:06;;;;;;;1.63;1.50;;;35.40;58.90;;;;;;4995270;28;20500;-74
2022/09/05 10:22:59;;;;;;;1.73;1.47;;;36.20;55.80;;;;;;4995652;28;20413;-74
2022/09/05 10:25:56;;;;;;;2.83;1.60;;;36.10;54.50;;;;;;4995578;28;20453;-74
2022/09/05 10:28:24;;;;;;;2.77;1.30;;;36.10;54.80;;;;;;4994230;28;20461;-73
2022/09/05 10:31:07;;;;;;;3.60;1.37;;;36.20;53.00;;;;;;4994897;28;20489;-73
2022/09/05 10:33:41;;;;;;;2.60;1.57;;;34.80;53.50;;;;;;4995225;28;20473;-74
2022/09/05 10:36:26;;;;;;;3.97;1.43;;;34.90;55.60;;;;;;4995420;28;20990;-78
2022/09/05 10:39:18;;;;;;;2.23;1.37;;;35.30;55.40;;;;;;4995268;28;20493;-74
2022/09/05 10:42:00;;;;;;;6.33;2.00;;;35.00;54.90;;;;;;4994277;28;20799;-74
2022/09/05 10:44:44;;;;;;;2.07;1.30;;;34.50;54.60;;;;;;4993092;28;20431;-74
2022/09/05 10:47:32;;;;;;;1.67;1.57;;;34.10;55.60;;;;;;4994959;28;20410;-74
2022/09/05 10:50:11;;;;;;;2.17;1.60;;;34.20;55.00;;;;;;4994358;28;20469;-74
2022/09/05 10:53:02;;;;;;;3.60;1.70;;;34.10;54.70;;;;;;4994297;28;20433;-74
2022/09/05 10:55:48;;;;;;;1.30;1.20;;;33.80;53.10;;;;;;4994628;28;20422;-74
2022/09/05 10:58:28;;;;;;;1.67;1.50;;;34.00;53.80;;;;;;4994985;28;20445;-72
2022/09/05 11:01:00;;;;;;;3.70;1.53;;;34.40;52.80;;;;;;4994309;28;20445;-72
2022/09/05 11:03:52;;;;;;;1.50;1.23;;;34.20;52.50;;;;;;4994724;28;20472;-74
2022/09/05 11:06:34;;;;;;;1.47;1.37;;;34.30;52.80;;;;;;4990814;28;20427;-75
2022/09/05 11:09:11;;;;;;;4.80;1.70;;;34.60;52.70;;;;;;4994207;28;20451;-74
2022/09/05 11:11:44;;;;;;;2.00;1.50;;;34.40;52.30;;;;;;4993925;28;20449;-75
2022/09/05 11:14:29;;;;;;;1.70;1.60;;;33.80;52.20;;;;;;4994289;28;20417;-74
2022/09/05 11:17:18;;;;;;;2.17;1.23;;;34.00;51.30;;;;;;4993126;28;20429;-75
2022/09/05 11:20:05;;;;;;;2.40;1.90;;;33.50;53.20;;;;;;4993998;28;20405;-74
2022/09/05 11:22:37;;;;;;;1.80;1.70;;;33.50;52.90;;;;;;4994433;28;20856;-73
2022/09/05 11:25:33;;;;;;;3.93;1.47;;;33.70;53.80;;;;;;4994391;28;20890;-74
2022/09/05 11:28:11;;;;;;;1.30;1.20;;;34.10;53.00;;;;;;4993038;28;20430;-75
2022/09/05 11:30:42;;;;;;;2.30;1.77;;;34.30;53.10;;;;;;4993971;28;20438;-74
2022/09/05 11:33:32;;;;;;;1.47;1.13;;;34.70;50.60;;;;;;4994206;28;20446;-74
2022/09/05 11:36:22;;;;;;;3.90;1.80;;;35.00;48.20;;;;;;4993992;28;20417;-74
2022/09/05 11:38:58;;;;;;;2.60;1.30;;;34.50;48.60;;;;;;4992898;28;20415;-74
2022/09/05 11:41:57;;;;;;;1.93;1.23;;;33.50;50.10;;;;;;4993874;28;20469;-74
2022/09/05 11:44:45;;;;;;;2.07;1.30;;;33.80;48.20;;;;;;4987156;28;20453;-74
2022/09/05 11:47:32;;;;;;;1.47;1.20;;;34.40;48.00;;;;;;4994264;28;20414;-74
2022/09/05 11:50:31;;;;;;;1.90;1.47;;;33.20;48.80;;;;;;4992281;28;20450;-74
2022/09/05 11:53:23;;;;;;;3.30;1.50;;;33.00;50.00;;;;;;4993923;28;20418;-74
2022/09/05 11:56:04;;;;;;;1.23;1.13;;;33.60;49.80;;;;;;4993646;28;20430;-74
2022/09/05 11:58:49;;;;;;;1.50;1.03;;;33.80;48.00;;;;;;4994087;28;20422;-75
2022/09/05 12:01:59;;;;;;;1.60;1.37;;;34.40;44.90;;;;;;4993561;28;20461;-74
2022/09/05 12:04:47;;;;;;;2.57;1.47;;;34.70;45.30;;;;;;4982416;28;20514;-75
2022/09/05 12:07:41;;;;;;;1.60;1.30;;;35.10;44.10;;;;;;4992580;28;20418;-75
2022/09/05 12:10:39;;;;;;;1.83;1.30;;;35.30;44.40;;;;;;4990994;28;20482;-74
2022/09/05 12:13:24;;;;;;;1.23;1.10;;;35.40;43.30;;;;;;4993806;28;20912;-74
2022/09/05 12:15:49;;;;;;;1.30;1.10;;;35.10;41.30;;;;;;4993628;28;20908;-74
2022/09/05 12:19:02;;;;;;;2.00;1.20;;;35.00;42.70;;;;;;4993579;28;20502;-74
2022/09/05 12:21:52;;;;;;;1.23;1.13;;;35.70;42.80;;;;;;4993220;28;20206;-73
2022/09/05 12:25:01;;;;;;;1.60;1.33;;;35.80;43.00;;;;;;4993431;28;20415;-74
2022/09/05 12:27:30;;;;;;;2.80;1.30;;;36.30;43.70;;;;;;4981796;28;20426;-75
2022/09/05 12:30:02;;;;;;;1.97;1.30;;;36.30;42.80;;;;;;4993523;28;20454;-73
2022/09/05 12:32:30;;;;;;;2.30;1.30;;;36.70;43.60;;;;;;4993520;28;20934;-74
2022/09/05 12:34:58;;;;;;;1.73;1.33;;;36.90;43.10;;;;;;4993558;28;20422;-76
2022/09/05 12:37:39;;;;;;;2.03;1.30;;;37.10;42.80;;;;;;4993810;28;20413;-74
2022/09/05 12:40:16;;;;;;;1.77;1.30;;;37.50;42.70;;;;;;4993454;28;20471;-74
2022/09/05 12:42:55;;;;;;;1.80;1.37;;;38.30;40.50;;;;;;4993184;28;20501;-73
2022/09/05 12:45:48;;;;;;;1.50;1.30;;;38.10;40.60;;;;;;4992276;28;20433;-74
2022/09/05 12:48:25;;;;;;;4.40;1.20;;;37.50;41.00;;;;;;4993445;28;20501;-74
2022/09/05 12:50:59;;;;;;;2.70;1.33;;;37.80;40.70;;;;;;4992872;28;20517;-75
2022/09/05 12:53:34;;;;;;;2.97;1.20;;;37.90;41.30;;;;;;4993484;28;20413;-74
2022/09/05 12:56:06;;;;;;;2.77;1.47;;;38.20;41.60;;;;;;4992095;28;20942;-75
2022/09/05 12:58:36;;;;;;;1.37;1.27;;;38.50;41.00;;;;;;4993209;28;20425;-72
2022/09/05 13:01:14;;;;;;;6.57;2.00;;;38.20;41.00;;;;;;4993204;28;20426;-72
2022/09/05 13:04:03;;;;;;;1.77;1.30;;;37.80;40.70;;;;;;4993318;28;20410;-73
2022/09/05 13:06:41;;;;;;;2.53;1.50;;;36.40;41.30;;;;;;4993129;28;20477;-73
2022/09/05 13:09:09;;;;;;;6.03;1.30;;;35.50;42.90;;;;;;4991910;28;20466;-74
2022/09/05 13:12:03;;;;;;;2.20;1.47;;;35.60;42.60;;;;;;4992931;28;20434;-74
2022/09/05 13:14:31;;;;;;;2.47;1.43;;;36.60;42.90;;;;;;4992966;28;20406;-75
2022/09/05 13:17:00;;;;;;;2.90;1.60;;;37.50;40.90;;;;;;4994214;28;20403;-74
2022/09/05 13:19:50;;;;;;;4.57;1.20;;;37.50;40.90;;;;;;4996127;28;20422;-74
2022/09/05 13:22:19;;;;;;;2.23;1.70;;;38.00;39.00;;;;;;4995233;28;20967;-74
2022/09/05 13:25:03;;;;;;;1.60;1.50;;;37.40;40.00;;;;;;4995451;28;20449;-74
2022/09/05 13:27:38;;;;;;;1.37;1.20;;;37.60;39.10;;;;;;4996696;28;20473;-74
2022/09/05 13:30:09;;;;;;;2.60;1.40;;;36.60;38.50;;;;;;4996103;28;20460;-73
2022/09/05 13:32:46;;;;;;;3.00;1.50;;;35.80;39.50;;;;;;4996372;28;20455;-75
2022/09/05 13:35:27;;;;;;;1.87;1.10;;;36.30;39.50;;;;;;4996484;28;20426;-75
2022/09/05 13:38:13;;;;;;;2.60;1.33;;;35.40;40.10;;;;;;4996351;28;20805;-75
2022/09/05 13:40:47;;;;;;;1.90;1.47;;;35.20;40.20;;;;;;4995938;28;20422;-74
2022/09/05 13:43:14;;;;;;;2.63;1.27;;;35.70;40.40;;;;;;4996377;28;20480;-74
2022/09/05 13:46:05;;;;;;;3.33;1.20;;;36.50;40.50;;;;;;4996410;28;20442;-75
2022/09/05 13:48:48;;;;;;;6.93;1.40;;;37.30;39.60;;;;;;4967437;28;20461;-73
2022/09/05 13:51:26;;;;;;;1.43;1.20;;;37.80;38.60;;;;;;4995717;28;20441;-75
2022/09/05 13:54:10;;;;;;;1.77;1.47;;;37.40;38.00;;;;;;4994886;28;20429;-73
2022/09/05 13:56:45;;;;;;;1.60;1.40;;;36.90;38.70;;;;;;4995944;28;20507;-75
2022/09/05 13:59:13;;;;;;;2.03;1.10;;;36.70;38.70;;;;;;4995912;28;20493;-74
2022/09/05 14:02:05;;;;;;;1.40;1.20;;;37.00;38.20;;;;;;4995660;28;20466;-73
2022/09/05 14:04:46;;;;;;;2.03;1.50;;;36.50;38.60;;;;;;4972325;28;20422;-73
2022/09/05 14:07:44;;;;;;;1.37;1.10;;;37.10;37.60;;;;;;4994432;28;20422;-74
2022/09/05 14:10:32;;;;;;;1.97;1.20;;;37.00;37.70;;;;;;4995387;28;20451;-73